Time,TemperatureF,DewpointF,PressureIn,WindDirection,WindDirectionDegrees,WindSpeedMPH,WindSpeedGustMPH,Humidity,HourlyPrecipIn,Conditions,Clouds,dailyrainin,SolarRadiationWatts/m^2,SoftwareType,DateUTC
2017-02-27 00:03:00,73.8,66.6,30.18,NE,46,4.0,4.9,78,0.00,,,0.00,0.00,Weather logger V3.0.,2017-02-27 05:03:00,
2017-02-27 00:08:00,73.6,66.4,30.18,NNE,33,7.2,9.8,78,0.00,,,0.00,0.00,Weather logger V3.0.,2017-02-27 05:08:00,
2017-02-27 00:13:00,73.6,66.4,30.18,NE,45,2.0,2.5,78,0.00,,,0.00,0.00,Weather logger V3.0.,2017-02-27 05:13:00,
2017-02-27 00:18:00,73.6,66.4,30.18,North,350,2.5,2.5,78,0.00,,,0.00,0.00,Weather logger V3.0.,2017-02-27 05:18:00,
2017-02-27 00:23:00,73.6,66.4,30.18,NE,41,1.8,4.9,78,0.00,,,0.00,0.00,Weather logger V3.0.,2017-02-27 05:23:00,
2017-02-27 00:28:00,73.6,66.7,30.18,NE,36,0.0,0.0,79,0.00,,,0.00,0.00,Weather logger V3.0.,2017-02-27 05:28:00,
2017-02-27 00:34:00,73.6,66.7,30.18,NE,49,0.0,0.0,79,0.00,,,0.00,0.00,Weather logger V3.0.,2017-02-27 05:34:00,
2017-02-27 00:39:00,73.6,66.7,30.18,NNE,27,4.0,4.9,79,0.00,,,0.00,0.00,Weather logger V3.0.,2017-02-27 05:39:00,
2017-02-27 00:44:00,73.6,66.7,30.18,ENE,68,2.9,4.9,79,0.00,,,0.00,0.00,Weather logger V3.0.,2017-02-27 05:44:00,
2017-02-27 00:49:00,73.6,66.7,30.18,North,1,2.0,2.5,79,0.00,,,0.00,0.00,Weather logger V3.0.,2017-02-27 05:49:00,
2017-02-27 00:54:00,73.8,66.9,30.18,North,9,4.5,7.4,79,0.00,,,0.00,0.00,Weather logger V3.0.,2017-02-27 05:54:00,
2017-02-27 00:59:00,73.8,67.3,30.18,East,81,1.1,2.5,80,0.00,,,0.00,0.00,Weather logger V3.0.,2017-02-27 05:59:00,
2017-02-27 01:04:00,73.8,67.3,30.17,NE,44,1.3,2.5,80,0.00,,,0.00,0.00,Weather logger V3.0.,2017-02-27 06:04:00,
2017-02-27 01:09:00,73.8,67.3,30.17,WNW,302,2.9,4.9,80,0.00,,,0.00,0.00,Weather logger V3.0.,2017-02-27 06:09:00,
2017-02-27 01:14:00,73.8,67.6,30.18,North,2,8.1,12.3,81,0.00,,,0.00,0.00,Weather logger V3.0.,2017-02-27 06:14:00,
2017-02-27 01:19:00,73.8,67.6,30.17,NE,53,4.2,4.9,81,0.00,,,0.00,0.00,Weather logger V3.0.,2017-02-27 06:19:00,
2017-02-27 01:24:00,73.6,67.5,30.17,NNE,29,4.5,7.4,81,0.00,,,0.00,0.00,Weather logger V3.0.,2017-02-27 06:24:00,
2017-02-27 01:29:00,73.6,67.5,30.16,ENE,62,3.4,4.9,81,0.00,,,0.00,0.00,Weather logger V3.0.,2017-02-27 06:29:00,
2017-02-27 01:34:00,73.6,67.5,30.16,NE,44,2.0,2.5,81,0.00,,,0.00,0.00,Weather logger V3.0.,2017-02-27 06:34:00,
2017-02-27 01:39:00,73.6,67.5,30.17,ENE,65,6.0,9.8,81,0.00,,,0.00,0.00,Weather logger V3.0.,2017-02-27 06:39:00,
2017-02-27 01:44:00,73.6,67.5,30.16,NE,43,4.5,4.9,81,0.00,,,0.00,0.00,Weather logger V3.0.,2017-02-27 06:44:00,
2017-02-27 01:50:00,73.4,67.6,30.17,NE,45,4.2,4.9,82,0.00,,,0.00,0.00,Weather logger V3.0.,2017-02-27 06:50:00,
2017-02-27 01:55:00,73.4,68.0,30.16,NE,52,4.0,7.4,83,0.00,,,0.00,0.00,Weather logger V3.0.,2017-02-27 06:55:00,
2017-02-27 02:00:00,73.4,68.0,30.16,East,81,3.4,4.9,83,0.00,,,0.00,0.00,Weather logger V3.0.,2017-02-27 07:00:00,
2017-02-27 02:05:00,73.4,68.0,30.16,ENE,64,2.5,4.9,83,0.00,,,0.00,0.00,Weather logger V3.0.,2017-02-27 07:05:00,
2017-02-27 02:10:00,73.4,68.0,30.17,East,82,2.9,4.9,83,0.00,,,0.00,0.00,Weather logger V3.0.,2017-02-27 07:10:00,
2017-02-27 02:15:00,73.2,68.2,30.16,NE,51,0.2,2.5,84,0.00,,,0.00,0.00,Weather logger V3.0.,2017-02-27 07:15:00,
2017-02-27 02:20:00,73.4,68.0,30.16,NE,37,3.4,4.9,83,0.00,,,0.00,0.00,Weather logger V3.0.,2017-02-27 07:20:00,
2017-02-27 02:25:00,73.4,68.0,30.16,NNE,30,2.0,2.5,83,0.00,,,0.00,0.00,Weather logger V3.0.,2017-02-27 07:25:00,
2017-02-27 02:30:00,73.4,68.0,30.16,NW,326,6.7,7.4,83,0.00,,,0.00,0.00,Weather logger V3.0.,2017-02-27 07:30:00,
2017-02-27 02:35:00,73.4,68.0,30.16,NNW,344,5.1,7.4,83,0.00,,,0.00,0.00,Weather logger V3.0.,2017-02-27 07:35:00,
2017-02-27 02:40:00,73.6,68.2,30.16,NNW,330,1.3,4.9,83,0.00,,,0.00,0.00,Weather logger V3.0.,2017-02-27 07:40:00,
2017-02-27 02:45:00,73.6,68.2,30.16,NNE,33,3.6,4.9,83,0.00,,,0.00,0.00,Weather logger V3.0.,2017-02-27 07:45:00,
2017-02-27 02:50:00,73.8,68.4,30.16,NE,54,5.1,7.4,83,0.00,,,0.00,0.00,Weather logger V3.0.,2017-02-27 07:50:00,
2017-02-27 02:55:00,73.8,68.7,30.16,WSW,239,4.5,7.4,84,0.00,,,0.00,0.00,Weather logger V3.0.,2017-02-27 07:55:00,
2017-02-27 03:00:00,73.8,68.7,30.16,NW,312,2.9,4.9,84,0.00,,,0.00,0.00,Weather logger V3.0.,2017-02-27 08:00:00,
2017-02-27 03:06:00,73.9,68.9,30.16,ENE,74,2.0,4.9,84,0.00,,,0.00,0.00,Weather logger V3.0.,2017-02-27 08:06:00,
2017-02-27 03:11:00,73.9,68.9,30.16,NE,51,0.4,2.5,84,0.00,,,0.00,0.00,Weather logger V3.0.,2017-02-27 08:11:00,
2017-02-27 03:16:00,73.9,68.9,30.16,NNW,341,5.8,7.4,84,0.00,,,0.00,0.00,Weather logger V3.0.,2017-02-27 08:16:00,
2017-02-27 03:21:00,73.9,68.9,30.16,NE,52,5.8,7.4,84,0.00,,,0.00,0.00,Weather logger V3.0.,2017-02-27 08:21:00,
2017-02-27 03:26:00,73.9,68.9,30.16,ENE,65,1.3,2.5,84,0.00,,,0.00,0.00,Weather logger V3.0.,2017-02-27 08:26:00,
2017-02-27 03:31:00,73.9,68.9,30.15,North,1,5.1,7.4,84,0.00,,,0.00,0.00,Weather logger V3.0.,2017-02-27 08:31:00,
2017-02-27 03:36:00,73.9,68.5,30.16,ENE,74,1.3,2.5,83,0.00,,,0.00,0.00,Weather logger V3.0.,2017-02-27 08:36:00,
2017-02-27 03:41:00,73.9,68.5,30.16,NNE,32,2.7,4.9,83,0.00,,,0.00,0.00,Weather logger V3.0.,2017-02-27 08:41:00,
2017-02-27 03:46:00,73.9,68.5,30.16,NNE,29,5.1,7.4,83,0.00,,,0.00,0.00,Weather logger V3.0.,2017-02-27 08:46:00,
2017-02-27 03:51:00,73.9,68.5,30.16,NNW,343,1.8,2.5,83,0.00,,,0.00,0.00,Weather logger V3.0.,2017-02-27 08:51:00,
2017-02-27 03:56:00,73.9,68.5,30.16,ENE,63,2.5,4.9,83,0.00,,,0.00,0.00,Weather logger V3.0.,2017-02-27 08:56:00,
2017-02-27 04:01:00,73.8,68.4,30.16,NE,47,1.1,2.5,83,0.00,,,0.00,0.00,Weather logger V3.0.,2017-02-27 09:01:00,
2017-02-27 04:06:00,73.8,68.7,30.15,North,354,0.2,2.5,84,0.00,,,0.00,0.00,Weather logger V3.0.,2017-02-27 09:06:00,
2017-02-27 04:11:00,73.8,68.7,30.16,NNE,23,1.8,2.5,84,0.00,,,0.00,0.00,Weather logger V3.0.,2017-02-27 09:11:00,
2017-02-27 04:16:00,73.8,68.7,30.15,NNW,338,6.0,7.4,84,0.00,,,0.00,0.00,Weather logger V3.0.,2017-02-27 09:16:00,
2017-02-27 04:22:00,73.6,68.5,30.16,North,2,1.8,2.5,84,0.00,,,0.00,0.00,Weather logger V3.0.,2017-02-27 09:22:00,
2017-02-27 04:27:00,73.6,68.5,30.16,NNE,33,0.9,2.5,84,0.00,,,0.00,0.00,Weather logger V3.0.,2017-02-27 09:27:00,
2017-02-27 04:32:00,73.8,68.4,30.16,NW,319,1.8,2.5,83,0.00,,,0.00,0.00,Weather logger V3.0.,2017-02-27 09:32:00,
2017-02-27 04:37:00,73.8,68.4,30.16,NNE,28,2.0,4.9,83,0.00,,,0.00,0.00,Weather logger V3.0.,2017-02-27 09:37:00,
2017-02-27 04:42:00,73.8,68.7,30.16,North,5,1.8,2.5,84,0.00,,,0.00,0.00,Weather logger V3.0.,2017-02-27 09:42:00,
2017-02-27 04:47:00,73.8,68.7,30.16,North,3,2.0,2.5,84,0.00,,,0.00,0.00,Weather logger V3.0.,2017-02-27 09:47:00,
2017-02-27 04:52:00,73.8,68.7,30.17,NE,44,0.4,2.5,84,0.00,,,0.00,0.00,Weather logger V3.0.,2017-02-27 09:52:00,
2017-02-27 04:57:00,73.8,69.1,30.17,NNE,14,0.2,2.5,85,0.00,,,0.00,0.00,Weather logger V3.0.,2017-02-27 09:57:00,
2017-02-27 05:02:00,73.6,68.9,30.17,NE,44,2.5,4.9,85,0.00,,,0.00,0.00,Weather logger V3.0.,2017-02-27 10:02:00,
2017-02-27 05:07:00,73.6,68.5,30.17,NNW,345,2.0,4.9,84,0.00,,,0.00,0.00,Weather logger V3.0.,2017-02-27 10:07:00,
2017-02-27 05:12:00,73.6,68.5,30.17,North,5,1.8,4.9,84,0.00,,,0.00,0.00,Weather logger V3.0.,2017-02-27 10:12:00,
2017-02-27 05:18:00,73.6,68.5,30.17,NNE,28,0.0,0.0,84,0.00,,,0.00,0.00,Weather logger V3.0.,2017-02-27 10:18:00,
2017-02-27 05:23:00,73.8,68.7,30.17,NE,35,0.2,2.5,84,0.00,,,0.00,0.00,Weather logger V3.0.,2017-02-27 10:23:00,
2017-02-27 05:28:00,73.8,68.7,30.17,ENE,78,0.9,2.5,84,0.00,,,0.00,0.00,Weather logger V3.0.,2017-02-27 10:28:00,
2017-02-27 05:33:00,73.8,68.7,30.17,NNW,339,2.5,4.9,84,0.00,,,0.00,0.00,Weather logger V3.0.,2017-02-27 10:33:00,
2017-02-27 05:38:00,73.8,68.7,30.17,NNW,333,3.4,4.9,84,0.00,,,0.00,0.00,Weather logger V3.0.,2017-02-27 10:38:00,
2017-02-27 05:43:00,73.8,68.7,30.17,NE,47,0.9,2.5,84,0.00,,,0.00,0.00,Weather logger V3.0.,2017-02-27 10:43:00,
2017-02-27 05:48:00,73.8,69.1,30.18,NE,35,2.0,4.9,85,0.00,,,0.00,0.00,Weather logger V3.0.,2017-02-27 10:48:00,
2017-02-27 05:54:00,73.8,69.1,30.18,North,10,2.0,4.9,85,0.00,,,0.00,0.00,Weather logger V3.0.,2017-02-27 10:54:00,
2017-02-27 05:59:00,73.8,69.4,30.18,NNW,339,4.0,4.9,86,0.00,,,0.00,0.00,Weather logger V3.0.,2017-02-27 10:59:00,
2017-02-27 06:04:00,73.9,68.9,30.18,NE,43,2.0,4.9,84,0.00,,,0.00,0.00,Weather logger V3.0.,2017-02-27 11:04:00,
2017-02-27 06:09:00,74.1,69.1,30.18,ENE,71,2.0,4.9,84,0.00,,,0.00,0.00,Weather logger V3.0.,2017-02-27 11:09:00,
2017-02-27 06:14:00,74.3,68.5,30.19,South,190,6.7,7.4,82,0.00,,,0.00,0.00,Weather logger V3.0.,2017-02-27 11:14:00,
2017-02-27 06:19:00,74.5,67.6,30.20,NE,36,4.0,4.9,79,0.00,,,0.00,0.00,Weather logger V3.0.,2017-02-27 11:19:00,
2017-02-27 06:24:00,74.7,67.5,30.20,NE,35,1.3,2.5,78,0.00,,,0.00,0.00,Weather logger V3.0.,2017-02-27 11:24:00,
2017-02-27 06:29:00,74.7,67.5,30.20,East,97,2.9,4.9,78,0.00,,,0.00,0.00,Weather logger V3.0.,2017-02-27 11:29:00,
2017-02-27 06:34:00,74.8,67.6,30.20,NNW,334,4.5,4.9,78,0.00,,,0.00,0.00,Weather logger V3.0.,2017-02-27 11:34:00,
2017-02-27 06:39:00,74.8,67.6,30.20,East,89,0.9,2.5,78,0.00,,,0.00,0.00,Weather logger V3.0.,2017-02-27 11:39:00,
2017-02-27 06:44:00,74.8,67.6,30.20,East,92,4.2,7.4,78,0.00,,,0.00,0.25,Weather logger V3.0.,2017-02-27 11:44:00,
2017-02-27 06:49:00,74.7,67.5,30.21,NNE,33,1.1,2.5,78,0.00,,,0.00,2.07,Weather logger V3.0.,2017-02-27 11:49:00,
2017-02-27 06:54:00,74.7,67.5,30.21,ESE,122,5.1,7.4,78,0.00,,,0.00,4.59,Weather logger V3.0.,2017-02-27 11:54:00,
2017-02-27 06:59:00,74.7,67.5,30.21,NNW,346,2.7,4.9,78,0.00,,,0.00,6.75,Weather logger V3.0.,2017-02-27 11:59:00,
2017-02-27 07:04:00,74.5,67.3,30.21,NNE,28,2.7,4.9,78,0.00,,,0.00,9.81,Weather logger V3.0.,2017-02-27 12:04:00,
2017-02-27 07:10:00,74.5,66.4,30.21,North,6,4.9,7.4,76,0.00,,,0.00,17.52,Weather logger V3.0.,2017-02-27 12:10:00,
2017-02-27 07:15:00,74.7,66.6,30.22,NE,38,0.2,2.5,76,0.00,,,0.00,27.43,Weather logger V3.0.,2017-02-27 12:15:00,
2017-02-27 07:20:00,74.7,66.2,30.21,SSE,163,4.0,4.9,75,0.00,,,0.00,29.20,Weather logger V3.0.,2017-02-27 12:20:00,
2017-02-27 07:21:00,74.8,66.0,30.22,North,356,3.6,4.9,74,0.00,,,0.00,30.23,Weather logger V3.0.,2017-02-27 12:21:00,
2017-02-27 07:26:00,74.8,66.0,30.21,North,356,4.0,4.9,74,0.00,,,0.00,35.56,Weather logger V3.0.,2017-02-27 12:26:00,
2017-02-27 07:31:00,75.0,65.8,30.22,East,83,2.9,4.9,73,0.00,,,0.00,38.44,Weather logger V3.0.,2017-02-27 12:31:00,
2017-02-27 07:36:00,75.2,66.0,30.22,NE,46,3.4,4.9,73,0.00,,,0.00,41.04,Weather logger V3.0.,2017-02-27 12:36:00,
2017-02-27 07:41:00,75.6,66.0,30.22,North,353,4.2,7.4,72,0.00,,,0.00,42.78,Weather logger V3.0.,2017-02-27 12:41:00,
2017-02-27 07:46:00,75.9,66.4,30.23,ENE,72,0.9,2.5,72,0.00,,,0.00,38.87,Weather logger V3.0.,2017-02-27 12:46:00,
2017-02-27 07:51:00,76.1,66.4,30.23,NNW,331,4.0,7.4,72,0.00,,,0.00,30.66,Weather logger V3.0.,2017-02-27 12:51:00,
2017-02-27 07:56:00,76.1,67.3,30.23,ENE,64,1.1,2.5,74,0.00,,,0.00,20.68,Weather logger V3.0.,2017-02-27 12:56:00,
2017-02-27 08:01:00,76.1,67.3,30.23,NE,39,3.6,4.9,74,0.00,,,0.00,19.34,Weather logger V3.0.,2017-02-27 13:01:00,
2017-02-27 08:06:00,75.9,66.7,30.23,ENE,76,0.4,2.5,73,0.00,,,0.00,19.93,Weather logger V3.0.,2017-02-27 13:06:00,
2017-02-27 08:11:00,75.7,66.9,30.23,NE,41,2.7,4.9,74,0.00,,,0.00,47.16,Weather logger V3.0.,2017-02-27 13:11:00,
2017-02-27 08:16:00,75.4,66.2,30.23,NE,50,0.9,2.5,73,0.00,,,0.00,36.98,Weather logger V3.0.,2017-02-27 13:16:00,
2017-02-27 08:22:00,75.2,65.7,30.24,NE,54,1.3,2.5,72,0.00,,,0.00,49.09,Weather logger V3.0.,2017-02-27 13:22:00,
2017-02-27 08:27:00,75.4,65.8,30.24,NE,44,4.2,4.9,72,0.00,,,0.00,47.00,Weather logger V3.0.,2017-02-27 13:27:00,
2017-02-27 08:32:00,75.6,65.5,30.24,NE,42,1.8,2.5,71,0.00,,,0.00,83.22,Weather logger V3.0.,2017-02-27 13:32:00,
2017-02-27 08:37:00,75.7,64.4,30.24,East,88,4.9,7.4,68,0.00,,,0.00,68.35,Weather logger V3.0.,2017-02-27 13:37:00,
2017-02-27 08:42:00,76.1,64.8,30.25,North,7,4.2,7.4,68,0.00,,,0.00,39.38,Weather logger V3.0.,2017-02-27 13:42:00,
2017-02-27 08:47:00,76.1,66.0,30.24,NNW,345,7.2,9.8,71,0.00,,,0.00,53.55,Weather logger V3.0.,2017-02-27 13:47:00,
2017-02-27 08:52:00,76.1,66.0,30.25,SE,127,4.5,7.4,71,0.00,,,0.00,70.13,Weather logger V3.0.,2017-02-27 13:52:00,
2017-02-27 08:57:00,76.1,66.4,30.26,NW,318,2.9,4.9,72,0.00,,,0.00,61.96,Weather logger V3.0.,2017-02-27 13:57:00,
2017-02-27 09:02:00,76.1,66.4,30.25,East,87,1.8,4.9,72,0.00,,,0.00,100.62,Weather logger V3.0.,2017-02-27 14:02:00,
2017-02-27 09:07:00,76.1,65.7,30.25,East,83,4.2,7.4,70,0.00,,,0.00,91.68,Weather logger V3.0.,2017-02-27 14:07:00,
2017-02-27 09:12:00,76.1,65.3,30.26,North,10,7.4,9.8,69,0.00,,,0.00,72.73,Weather logger V3.0.,2017-02-27 14:12:00,
2017-02-27 09:17:00,76.6,64.4,30.26,NE,35,9.2,12.3,66,0.00,,,0.00,62.90,Weather logger V3.0.,2017-02-27 14:17:00,
2017-02-27 09:22:00,76.8,65.1,30.25,SE,144,2.7,4.9,67,0.00,,,0.00,69.30,Weather logger V3.0.,2017-02-27 14:22:00,
2017-02-27 09:27:00,77.2,63.7,30.25,NE,53,6.0,12.3,63,0.00,,,0.00,107.75,Weather logger V3.0.,2017-02-27 14:27:00,
2017-02-27 09:32:00,77.4,64.8,30.26,East,81,9.8,12.3,65,0.00,,,0.00,162.21,Weather logger V3.0.,2017-02-27 14:32:00,
2017-02-27 09:38:00,77.4,65.7,30.26,North,0,8.9,15.0,67,0.00,,,0.00,67.80,Weather logger V3.0.,2017-02-27 14:38:00,